sensor_id;sensor_type;location;lat;lon;timestamp;P1;durP1;ratioP1;P2;durP2;ratioP2
39970;SDS011;35425;51.142;17.178;2023-02-25T00:01:34;2.38;;;1.58;;
39970;SDS011;35425;51.142;17.178;2023-02-25T00:04:01;2.03;;;1.83;;
39970;SDS011;35425;51.142;17.178;2023-02-25T00:06:27;2.30;;;1.70;;
39970;SDS011;35425;51.142;17.178;2023-02-25T00:08:54;2.25;;;1.88;;
39970;SDS011;35425;51.142;17.178;2023-02-25T00:11:22;1.80;;;1.60;;
39970;SDS011;35425;51.142;17.178;2023-02-25T00:13:49;2.30;;;1.85;;
39970;SDS011;35425;51.142;17.178;2023-02-25T00:16:16;1.40;;;1.20;;
39970;SDS011;35425;51.142;17.178;2023-02-25T00:18:42;1.75;;;1.35;;
39970;SDS011;35425;51.142;17.178;2023-02-25T00:21:13;1.95;;;1.70;;
39970;SDS011;35425;51.142;17.178;2023-02-25T00:23:44;1.48;;;1.27;;
39970;SDS011;35425;51.142;17.178;2023-02-25T00:26:11;1.58;;;1.38;;
39970;SDS011;35425;51.142;17.178;2023-02-25T00:28:38;1.65;;;1.23;;
39970;SDS011;35425;51.142;17.178;2023-02-25T00:31:15;1.25;;;1.10;;
39970;SDS011;35425;51.142;17.178;2023-02-25T00:33:42;1.88;;;1.10;;
39970;SDS011;35425;51.142;17.178;2023-02-25T00:36:09;1.30;;;1.10;;
39970;SDS011;35425;51.142;17.178;2023-02-25T00:38:35;1.25;;;1.15;;
39970;SDS011;35425;51.142;17.178;2023-02-25T00:41:08;1.23;;;0.90;;
39970;SDS011;35425;51.142;17.178;2023-02-25T00:43:39;1.60;;;1.10;;
39970;SDS011;35425;51.142;17.178;2023-02-25T00:46:07;1.27;;;0.90;;
39970;SDS011;35425;51.142;17.178;2023-02-25T00:48:35;1.42;;;0.98;;
39970;SDS011;35425;51.142;17.178;2023-02-25T00:51:06;0.88;;;0.77;;
39970;SDS011;35425;51.142;17.178;2023-02-25T00:53:32;1.10;;;0.68;;
39970;SDS011;35425;51.142;17.178;2023-02-25T00:56:02;1.23;;;0.73;;
39970;SDS011;35425;51.142;17.178;2023-02-25T00:58:29;1.10;;;0.90;;
39970;SDS011;35425;51.142;17.178;2023-02-25T01:00:55;0.80;;;0.70;;
39970;SDS011;35425;51.142;17.178;2023-02-25T01:03:22;1.08;;;0.80;;
39970;SDS011;35425;51.142;17.178;2023-02-25T01:05:48;1.08;;;0.73;;
39970;SDS011;35425;51.142;17.178;2023-02-25T01:08:16;1.25;;;0.80;;
39970;SDS011;35425;51.142;17.178;2023-02-25T01:10:43;1.02;;;0.70;;
39970;SDS011;35425;51.142;17.178;2023-02-25T01:13:10;0.85;;;0.60;;
39970;SDS011;35425;51.142;17.178;2023-02-25T01:15:36;1.15;;;0.73;;
39970;SDS011;35425;51.142;17.178;2023-02-25T01:18:03;1.00;;;0.60;;
39970;SDS011;35425;51.142;17.178;2023-02-25T01:20:30;1.15;;;0.77;;
39970;SDS011;35425;51.142;17.178;2023-02-25T01:22:56;1.05;;;0.60;;
39970;SDS011;35425;51.142;17.178;2023-02-25T01:25:22;0.68;;;0.55;;
39970;SDS011;35425;51.142;17.178;2023-02-25T01:27:54;0.57;;;0.43;;
39970;SDS011;35425;51.142;17.178;2023-02-25T01:30:20;1.15;;;0.70;;
39970;SDS011;35425;51.142;17.178;2023-02-25T01:32:47;1.13;;;0.70;;
39970;SDS011;35425;51.142;17.178;2023-02-25T01:35:13;0.80;;;0.45;;
39970;SDS011;35425;51.142;17.178;2023-02-25T01:37:40;0.80;;;0.60;;
39970;SDS011;35425;51.142;17.178;2023-02-25T01:40:12;0.70;;;0.50;;
39970;SDS011;35425;51.142;17.178;2023-02-25T01:42:39;0.65;;;0.50;;
39970;SDS011;35425;51.142;17.178;2023-02-25T01:47:35;1.10;;;0.73;;
39970;SDS011;35425;51.142;17.178;2023-02-25T01:50:03;0.93;;;0.50;;
39970;SDS011;35425;51.142;17.178;2023-02-25T01:52:31;1.30;;;0.60;;
39970;SDS011;35425;51.142;17.178;2023-02-25T01:54:57;0.70;;;0.47;;
39970;SDS011;35425;51.142;17.178;2023-02-25T01:57:24;0.90;;;0.60;;
39970;SDS011;35425;51.142;17.178;2023-02-25T01:59:51;0.90;;;0.60;;
39970;SDS011;35425;51.142;17.178;2023-02-25T02:02:19;0.93;;;0.52;;
39970;SDS011;35425;51.142;17.178;2023-02-25T02:04:47;0.90;;;0.50;;
39970;SDS011;35425;51.142;17.178;2023-02-25T02:07:15;1.35;;;0.65;;
39970;SDS011;35425;51.142;17.178;2023-02-25T02:09:42;0.82;;;0.57;;
39970;SDS011;35425;51.142;17.178;2023-02-25T02:12:25;1.17;;;0.60;;
39970;SDS011;35425;51.142;17.178;2023-02-25T02:14:52;0.70;;;0.60;;
39970;SDS011;35425;51.142;17.178;2023-02-25T02:17:22;1.10;;;0.70;;
39970;SDS011;35425;51.142;17.178;2023-02-25T02:19:56;1.05;;;0.63;;
39970;SDS011;35425;51.142;17.178;2023-02-25T02:25:17;0.60;;;0.60;;
39970;SDS011;35425;51.142;17.178;2023-02-25T02:33:23;0.80;;;0.70;;
39970;SDS011;35425;51.142;17.178;2023-02-25T02:36:03;1.20;;;0.60;;
39970;SDS011;35425;51.142;17.178;2023-02-25T02:38:44;1.80;;;0.80;;
39970;SDS011;35425;51.142;17.178;2023-02-25T02:46:14;1.55;;;0.88;;
39970;SDS011;35425;51.142;17.178;2023-02-25T02:51:14;1.13;;;0.70;;
39970;SDS011;35425;51.142;17.178;2023-02-25T02:53:44;0.90;;;0.70;;
39970;SDS011;35425;51.142;17.178;2023-02-25T02:56:12;1.17;;;0.80;;
39970;SDS011;35425;51.142;17.178;2023-02-25T03:01:11;0.82;;;0.60;;
39970;SDS011;35425;51.142;17.178;2023-02-25T03:03:39;1.33;;;0.70;;
39970;SDS011;35425;51.142;17.178;2023-02-25T03:06:29;1.42;;;0.80;;
39970;SDS011;35425;51.142;17.178;2023-02-25T03:09:16;1.02;;;0.65;;
39970;SDS011;35425;51.142;17.178;2023-02-25T03:11:43;1.88;;;1.00;;
39970;SDS011;35425;51.142;17.178;2023-02-25T03:14:10;1.55;;;0.98;;
39970;SDS011;35425;51.142;17.178;2023-02-25T03:16:37;1.27;;;0.77;;
39970;SDS011;35425;51.142;17.178;2023-02-25T03:19:07;1.52;;;0.80;;
39970;SDS011;35425;51.142;17.178;2023-02-25T03:21:36;1.58;;;0.70;;
39970;SDS011;35425;51.142;17.178;2023-02-25T03:24:03;0.95;;;0.68;;
39970;SDS011;35425;51.142;17.178;2023-02-25T03:26:33;1.00;;;0.90;;
39970;SDS011;35425;51.142;17.178;2023-02-25T03:29:00;1.25;;;0.70;;
39970;SDS011;35425;51.142;17.178;2023-02-25T03:34:13;1.23;;;0.90;;
39970;SDS011;35425;51.142;17.178;2023-02-25T03:36:51;1.65;;;0.80;;
39970;SDS011;35425;51.142;17.178;2023-02-25T03:39:24;1.65;;;1.00;;
39970;SDS011;35425;51.142;17.178;2023-02-25T03:41:53;1.20;;;0.80;;
39970;SDS011;35425;51.142;17.178;2023-02-25T03:44:24;1.13;;;0.70;;
39970;SDS011;35425;51.142;17.178;2023-02-25T03:46:52;1.42;;;0.85;;
39970;SDS011;35425;51.142;17.178;2023-02-25T03:49:24;1.33;;;0.82;;
39970;SDS011;35425;51.142;17.178;2023-02-25T03:51:52;1.05;;;0.70;;
39970;SDS011;35425;51.142;17.178;2023-02-25T03:54:19;1.75;;;0.80;;
39970;SDS011;35425;51.142;17.178;2023-02-25T03:56:46;2.08;;;0.90;;
39970;SDS011;35425;51.142;17.178;2023-02-25T03:59:14;1.38;;;0.80;;
39970;SDS011;35425;51.142;17.178;2023-02-25T04:01:41;1.33;;;0.80;;
39970;SDS011;35425;51.142;17.178;2023-02-25T04:04:08;1.67;;;0.73;;
39970;SDS011;35425;51.142;17.178;2023-02-25T04:06:35;1.40;;;0.80;;
39970;SDS011;35425;51.142;17.178;2023-02-25T04:09:02;1.10;;;0.60;;
39970;SDS011;35425;51.142;17.178;2023-02-25T04:11:29;0.90;;;0.70;;
39970;SDS011;35425;51.142;17.178;2023-02-25T04:13:55;1.27;;;1.00;;
39970;SDS011;35425;51.142;17.178;2023-02-25T04:16:22;1.50;;;0.68;;
39970;SDS011;35425;51.142;17.178;2023-02-25T04:18:48;1.58;;;0.82;;
39970;SDS011;35425;51.142;17.178;2023-02-25T04:21:26;1.70;;;0.80;;
39970;SDS011;35425;51.142;17.178;2023-02-25T04:23:53;1.20;;;0.77;;
39970;SDS011;35425;51.142;17.178;2023-02-25T04:26:19;1.48;;;0.80;;
39970;SDS011;35425;51.142;17.178;2023-02-25T04:28:46;1.75;;;1.00;;
39970;SDS011;35425;51.142;17.178;2023-02-25T04:31:13;1.83;;;0.93;;
39970;SDS011;35425;51.142;17.178;2023-02-25T04:33:39;2.67;;;0.90;;
39970;SDS011;35425;51.142;17.178;2023-02-25T04:36:20;1.73;;;1.00;;
39970;SDS011;35425;51.142;17.178;2023-02-25T04:38:47;0.80;;;0.60;;
39970;SDS011;35425;51.142;17.178;2023-02-25T04:41:14;2.03;;;1.10;;
39970;SDS011;35425;51.142;17.178;2023-02-25T04:43:40;1.67;;;0.93;;
39970;SDS011;35425;51.142;17.178;2023-02-25T04:46:06;1.95;;;0.90;;
39970;SDS011;35425;51.142;17.178;2023-02-25T04:48:33;1.48;;;0.98;;
39970;SDS011;35425;51.142;17.178;2023-02-25T04:51:00;1.40;;;1.02;;
39970;SDS011;35425;51.142;17.178;2023-02-25T04:53:27;2.08;;;0.93;;
39970;SDS011;35425;51.142;17.178;2023-02-25T04:55:53;2.35;;;1.00;;
39970;SDS011;35425;51.142;17.178;2023-02-25T04:58:20;1.42;;;1.02;;
39970;SDS011;35425;51.142;17.178;2023-02-25T05:00:46;1.63;;;1.10;;
39970;SDS011;35425;51.142;17.178;2023-02-25T05:03:13;1.65;;;1.00;;
39970;SDS011;35425;51.142;17.178;2023-02-25T05:05:39;1.40;;;1.10;;
39970;SDS011;35425;51.142;17.178;2023-02-25T05:08:06;1.70;;;1.17;;
39970;SDS011;35425;51.142;17.178;2023-02-25T05:10:32;1.67;;;0.93;;
39970;SDS011;35425;51.142;17.178;2023-02-25T05:12:59;1.70;;;1.15;;
39970;SDS011;35425;51.142;17.178;2023-02-25T05:15:25;1.98;;;1.05;;
39970;SDS011;35425;51.142;17.178;2023-02-25T05:17:52;2.47;;;1.27;;
39970;SDS011;35425;51.142;17.178;2023-02-25T05:20:18;1.88;;;1.00;;
39970;SDS011;35425;51.142;17.178;2023-02-25T05:22:45;1.95;;;1.20;;
39970;SDS011;35425;51.142;17.178;2023-02-25T05:25:11;1.10;;;0.88;;
39970;SDS011;35425;51.142;17.178;2023-02-25T05:27:38;1.83;;;0.95;;
39970;SDS011;35425;51.142;17.178;2023-02-25T05:30:04;1.65;;;1.00;;
39970;SDS011;35425;51.142;17.178;2023-02-25T05:32:31;2.05;;;1.15;;
39970;SDS011;35425;51.142;17.178;2023-02-25T05:34:58;2.08;;;0.90;;
39970;SDS011;35425;51.142;17.178;2023-02-25T05:37:25;1.63;;;1.02;;
39970;SDS011;35425;51.142;17.178;2023-02-25T05:39:52;1.35;;;1.00;;
39970;SDS011;35425;51.142;17.178;2023-02-25T05:42:18;1.52;;;0.90;;
39970;SDS011;35425;51.142;17.178;2023-02-25T05:44:45;2.15;;;0.93;;
39970;SDS011;35425;51.142;17.178;2023-02-25T05:47:11;2.63;;;1.08;;
39970;SDS011;35425;51.142;17.178;2023-02-25T05:49:40;2.38;;;1.10;;
39970;SDS011;35425;51.142;17.178;2023-02-25T05:52:08;2.42;;;1.00;;
39970;SDS011;35425;51.142;17.178;2023-02-25T05:54:34;1.60;;;0.80;;
39970;SDS011;35425;51.142;17.178;2023-02-25T05:57:01;1.92;;;1.00;;
39970;SDS011;35425;51.142;17.178;2023-02-25T05:59:27;0.93;;;0.63;;
39970;SDS011;35425;51.142;17.178;2023-02-25T06:01:54;1.48;;;0.93;;
39970;SDS011;35425;51.142;17.178;2023-02-25T06:04:21;1.25;;;0.60;;
39970;SDS011;35425;51.142;17.178;2023-02-25T06:06:48;1.55;;;0.73;;
39970;SDS011;35425;51.142;17.178;2023-02-25T06:09:17;1.52;;;0.68;;
39970;SDS011;35425;51.142;17.178;2023-02-25T06:11:45;1.30;;;0.95;;
39970;SDS011;35425;51.142;17.178;2023-02-25T06:14:12;1.38;;;0.70;;
39970;SDS011;35425;51.142;17.178;2023-02-25T06:16:38;1.42;;;0.80;;
39970;SDS011;35425;51.142;17.178;2023-02-25T06:19:05;1.10;;;0.70;;
39970;SDS011;35425;51.142;17.178;2023-02-25T06:21:32;1.33;;;0.70;;
39970;SDS011;35425;51.142;17.178;2023-02-25T06:23:59;1.42;;;0.63;;
39970;SDS011;35425;51.142;17.178;2023-02-25T06:26:26;1.95;;;0.82;;
39970;SDS011;35425;51.142;17.178;2023-02-25T06:28:53;1.02;;;0.50;;
39970;SDS011;35425;51.142;17.178;2023-02-25T06:31:20;1.30;;;0.65;;
39970;SDS011;35425;51.142;17.178;2023-02-25T06:33:47;1.30;;;0.60;;
39970;SDS011;35425;51.142;17.178;2023-02-25T06:36:16;1.58;;;0.65;;
39970;SDS011;35425;51.142;17.178;2023-02-25T06:38:46;1.10;;;0.70;;
39970;SDS011;35425;51.142;17.178;2023-02-25T06:41:13;0.95;;;0.57;;
39970;SDS011;35425;51.142;17.178;2023-02-25T06:43:41;0.73;;;0.40;;
39970;SDS011;35425;51.142;17.178;2023-02-25T06:46:08;1.17;;;0.60;;
39970;SDS011;35425;51.142;17.178;2023-02-25T06:48:35;1.23;;;0.60;;
39970;SDS011;35425;51.142;17.178;2023-02-25T06:51:02;0.82;;;0.60;;
39970;SDS011;35425;51.142;17.178;2023-02-25T06:53:29;1.88;;;0.80;;
39970;SDS011;35425;51.142;17.178;2023-02-25T06:55:57;1.10;;;0.55;;
39970;SDS011;35425;51.142;17.178;2023-02-25T06:58:23;0.93;;;0.50;;
39970;SDS011;35425;51.142;17.178;2023-02-25T07:00:50;0.60;;;0.40;;
39970;SDS011;35425;51.142;17.178;2023-02-25T07:03:16;0.98;;;0.50;;
39970;SDS011;35425;51.142;17.178;2023-02-25T07:05:42;0.93;;;0.50;;
39970;SDS011;35425;51.142;17.178;2023-02-25T07:08:09;1.05;;;0.57;;
39970;SDS011;35425;51.142;17.178;2023-02-25T07:10:35;0.90;;;0.40;;
39970;SDS011;35425;51.142;17.178;2023-02-25T07:13:02;0.88;;;0.45;;
39970;SDS011;35425;51.142;17.178;2023-02-25T07:15:28;0.80;;;0.40;;
39970;SDS011;35425;51.142;17.178;2023-02-25T07:17:55;1.63;;;0.60;;
39970;SDS011;35425;51.142;17.178;2023-02-25T07:20:21;0.80;;;0.40;;
39970;SDS011;35425;51.142;17.178;2023-02-25T07:22:48;0.82;;;0.50;;
39970;SDS011;35425;51.142;17.178;2023-02-25T07:25:14;0.88;;;0.40;;
39970;SDS011;35425;51.142;17.178;2023-02-25T07:27:41;0.95;;;0.47;;
39970;SDS011;35425;51.142;17.178;2023-02-25T07:30:10;0.80;;;0.40;;
39970;SDS011;35425;51.142;17.178;2023-02-25T07:32:38;0.55;;;0.38;;
39970;SDS011;35425;51.142;17.178;2023-02-25T07:35:05;1.10;;;0.68;;
39970;SDS011;35425;51.142;17.178;2023-02-25T07:37:32;0.60;;;0.30;;
39970;SDS011;35425;51.142;17.178;2023-02-25T07:39:58;1.23;;;0.35;;
39970;SDS011;35425;51.142;17.178;2023-02-25T07:42:28;0.93;;;0.60;;
39970;SDS011;35425;51.142;17.178;2023-02-25T07:44:54;0.50;;;0.30;;
39970;SDS011;35425;51.142;17.178;2023-02-25T07:47:21;1.42;;;0.50;;
39970;SDS011;35425;51.142;17.178;2023-02-25T07:49:47;0.85;;;0.50;;
39970;SDS011;35425;51.142;17.178;2023-02-25T07:52:13;1.33;;;0.40;;
39970;SDS011;35425;51.142;17.178;2023-02-25T07:54:40;0.90;;;0.30;;
39970;SDS011;35425;51.142;17.178;2023-02-25T07:57:06;1.13;;;0.43;;
39970;SDS011;35425;51.142;17.178;2023-02-25T07:59:33;0.60;;;0.38;;
39970;SDS011;35425;51.142;17.178;2023-02-25T08:01:59;0.60;;;0.40;;
39970;SDS011;35425;51.142;17.178;2023-02-25T08:04:26;0.50;;;0.32;;
39970;SDS011;35425;51.142;17.178;2023-02-25T08:06:53;0.47;;;0.43;;
39970;SDS011;35425;51.142;17.178;2023-02-25T08:09:20;0.73;;;0.35;;
39970;SDS011;35425;51.142;17.178;2023-02-25T08:11:46;1.20;;;0.70;;
39970;SDS011;35425;51.142;17.178;2023-02-25T08:14:13;1.33;;;0.50;;
39970;SDS011;35425;51.142;17.178;2023-02-25T08:16:39;1.33;;;0.60;;
39970;SDS011;35425;51.142;17.178;2023-02-25T08:19:06;0.70;;;0.50;;
39970;SDS011;35425;51.142;17.178;2023-02-25T08:21:32;0.90;;;0.47;;
39970;SDS011;35425;51.142;17.178;2023-02-25T08:23:59;0.68;;;0.40;;
39970;SDS011;35425;51.142;17.178;2023-02-25T08:26:25;1.00;;;0.40;;
39970;SDS011;35425;51.142;17.178;2023-02-25T08:28:52;0.88;;;0.50;;
39970;SDS011;35425;51.142;17.178;2023-02-25T08:31:19;0.75;;;0.50;;
39970;SDS011;35425;51.142;17.178;2023-02-25T08:33:47;0.70;;;0.40;;
39970;SDS011;35425;51.142;17.178;2023-02-25T08:36:18;0.93;;;0.60;;
39970;SDS011;35425;51.142;17.178;2023-02-25T08:38:45;0.80;;;0.40;;
39970;SDS011;35425;51.142;17.178;2023-02-25T08:41:12;1.80;;;0.60;;
39970;SDS011;35425;51.142;17.178;2023-02-25T08:43:38;1.00;;;0.68;;
39970;SDS011;35425;51.142;17.178;2023-02-25T08:46:06;0.82;;;0.50;;
39970;SDS011;35425;51.142;17.178;2023-02-25T08:48:33;1.13;;;0.65;;
39970;SDS011;35425;51.142;17.178;2023-02-25T08:51:06;1.13;;;0.70;;
39970;SDS011;35425;51.142;17.178;2023-02-25T08:53:37;0.77;;;0.60;;
39970;SDS011;35425;51.142;17.178;2023-02-25T08:56:07;0.93;;;0.50;;
39970;SDS011;35425;51.142;17.178;2023-02-25T08:58:34;1.25;;;0.57;;
39970;SDS011;35425;51.142;17.178;2023-02-25T09:01:05;1.10;;;0.70;;
39970;SDS011;35425;51.142;17.178;2023-02-25T09:03:34;0.70;;;0.55;;
39970;SDS011;35425;51.142;17.178;2023-02-25T09:06:00;1.05;;;0.63;;
39970;SDS011;35425;51.142;17.178;2023-02-25T09:08:27;0.85;;;0.60;;
39970;SDS011;35425;51.142;17.178;2023-02-25T09:10:53;1.05;;;0.70;;
39970;SDS011;35425;51.142;17.178;2023-02-25T09:13:20;1.00;;;0.70;;
39970;SDS011;35425;51.142;17.178;2023-02-25T09:15:53;0.80;;;0.70;;
39970;SDS011;35425;51.142;17.178;2023-02-25T09:18:23;1.17;;;0.70;;
39970;SDS011;35425;51.142;17.178;2023-02-25T09:20:50;1.13;;;0.60;;
39970;SDS011;35425;51.142;17.178;2023-02-25T09:23:16;0.70;;;0.57;;
39970;SDS011;35425;51.142;17.178;2023-02-25T09:25:43;1.20;;;0.70;;
39970;SDS011;35425;51.142;17.178;2023-02-25T09:28:10;0.90;;;0.70;;
39970;SDS011;35425;51.142;17.178;2023-02-25T09:30:37;0.90;;;0.70;;
39970;SDS011;35425;51.142;17.178;2023-02-25T09:33:03;0.77;;;0.57;;
39970;SDS011;35425;51.142;17.178;2023-02-25T09:35:30;0.80;;;0.70;;
39970;SDS011;35425;51.142;17.178;2023-02-25T09:37:57;2.17;;;0.82;;
39970;SDS011;35425;51.142;17.178;2023-02-25T09:40:23;0.80;;;0.50;;
39970;SDS011;35425;51.142;17.178;2023-02-25T09:45:22;0.80;;;0.70;;
39970;SDS011;35425;51.142;17.178;2023-02-25T09:47:59;1.20;;;0.80;;
39970;SDS011;35425;51.142;17.178;2023-02-25T09:50:28;1.67;;;0.90;;
39970;SDS011;35425;51.142;17.178;2023-02-25T09:53:44;1.02;;;0.70;;
39970;SDS011;35425;51.142;17.178;2023-02-25T09:55:43;0.90;;;0.60;;
39970;SDS011;35425;51.142;17.178;2023-02-25T09:58:29;1.00;;;0.90;;
39970;SDS011;35425;51.142;17.178;2023-02-25T10:11:08;1.25;;;0.90;;
39970;SDS011;35425;51.142;17.178;2023-02-25T10:18:49;1.20;;;0.80;;
39970;SDS011;35425;51.142;17.178;2023-02-25T10:23:51;1.38;;;0.82;;
39970;SDS011;35425;51.142;17.178;2023-02-25T10:26:24;1.17;;;0.77;;
39970;SDS011;35425;51.142;17.178;2023-02-25T10:28:55;1.00;;;0.68;;
39970;SDS011;35425;51.142;17.178;2023-02-25T10:31:24;0.88;;;0.70;;
39970;SDS011;35425;51.142;17.178;2023-02-25T10:33:51;1.10;;;0.70;;
39970;SDS011;35425;51.142;17.178;2023-02-25T10:36:20;0.88;;;0.60;;
39970;SDS011;35425;51.142;17.178;2023-02-25T10:38:48;0.80;;;0.52;;
39970;SDS011;35425;51.142;17.178;2023-02-25T10:41:15;0.80;;;0.60;;
39970;SDS011;35425;51.142;17.178;2023-02-25T10:43:43;1.08;;;0.60;;
39970;SDS011;35425;51.142;17.178;2023-02-25T10:46:28;1.17;;;0.65;;
39970;SDS011;35425;51.142;17.178;2023-02-25T10:48:59;1.10;;;0.60;;
39970;SDS011;35425;51.142;17.178;2023-02-25T10:51:26;1.10;;;0.80;;
39970;SDS011;35425;51.142;17.178;2023-02-25T10:56:25;0.85;;;0.50;;
39970;SDS011;35425;51.142;17.178;2023-02-25T10:59:00;0.50;;;0.30;;
39970;SDS011;35425;51.142;17.178;2023-02-25T11:01:33;1.13;;;0.60;;
39970;SDS011;35425;51.142;17.178;2023-02-25T11:04:01;0.80;;;0.60;;
39970;SDS011;35425;51.142;17.178;2023-02-25T11:06:35;1.15;;;0.60;;
39970;SDS011;35425;51.142;17.178;2023-02-25T11:09:03;1.17;;;0.60;;
39970;SDS011;35425;51.142;17.178;2023-02-25T11:11:31;0.90;;;0.60;;
39970;SDS011;35425;51.142;17.178;2023-02-25T11:16:28;1.00;;;0.50;;
39970;SDS011;35425;51.142;17.178;2023-02-25T11:18:59;0.77;;;0.45;;
39970;SDS011;35425;51.142;17.178;2023-02-25T11:21:27;1.98;;;0.82;;
39970;SDS011;35425;51.142;17.178;2023-02-25T11:23:54;0.80;;;0.50;;
39970;SDS011;35425;51.142;17.178;2023-02-25T11:26:29;0.82;;;0.50;;
39970;SDS011;35425;51.142;17.178;2023-02-25T11:29:00;0.80;;;0.50;;
39970;SDS011;35425;51.142;17.178;2023-02-25T11:31:28;0.55;;;0.38;;
39970;SDS011;35425;51.142;17.178;2023-02-25T11:33:56;0.60;;;0.50;;
39970;SDS011;35425;51.142;17.178;2023-02-25T11:36:28;0.63;;;0.43;;
39970;SDS011;35425;51.142;17.178;2023-02-25T11:39:03;0.73;;;0.50;;
39970;SDS011;35425;51.142;17.178;2023-02-25T11:41:30;1.02;;;0.55;;
39970;SDS011;35425;51.142;17.178;2023-02-25T11:43:57;1.00;;;0.52;;
39970;SDS011;35425;51.142;17.178;2023-02-25T11:46:35;1.08;;;0.52;;
39970;SDS011;35425;51.142;17.178;2023-02-25T11:51:41;0.80;;;0.50;;
39970;SDS011;35425;51.142;17.178;2023-02-25T11:56:54;0.60;;;0.50;;
39970;SDS011;35425;51.142;17.178;2023-02-25T11:59:30;0.50;;;0.40;;
39970;SDS011;35425;51.142;17.178;2023-02-25T12:14:59;0.70;;;0.45;;
39970;SDS011;35425;51.142;17.178;2023-02-25T12:23:20;0.57;;;0.38;;
39970;SDS011;35425;51.142;17.178;2023-02-25T12:34:19;1.23;;;0.40;;
39970;SDS011;35425;51.142;17.178;2023-02-25T12:42:54;0.73;;;0.47;;
39970;SDS011;35425;51.142;17.178;2023-02-25T12:45:20;0.88;;;0.50;;
39970;SDS011;35425;51.142;17.178;2023-02-25T12:55:29;1.40;;;0.65;;
39970;SDS011;35425;51.142;17.178;2023-02-25T13:00:49;1.33;;;0.60;;
39970;SDS011;35425;51.142;17.178;2023-02-25T13:10:57;2.65;;;0.63;;
39970;SDS011;35425;51.142;17.178;2023-02-25T13:23:47;0.73;;;0.40;;
39970;SDS011;35425;51.142;17.178;2023-02-25T13:34:29;1.00;;;0.50;;
39970;SDS011;35425;51.142;17.178;2023-02-25T13:39:43;0.43;;;0.30;;
39970;SDS011;35425;51.142;17.178;2023-02-25T13:57:42;1.33;;;0.50;;
39970;SDS011;35425;51.142;17.178;2023-02-25T14:11:09;1.20;;;0.65;;
39970;SDS011;35425;51.142;17.178;2023-02-25T14:13:41;1.17;;;0.50;;
39970;SDS011;35425;51.142;17.178;2023-02-25T14:31:36;0.88;;;0.50;;
39970;SDS011;35425;51.142;17.178;2023-02-25T14:42:47;0.73;;;0.40;;
39970;SDS011;35425;51.142;17.178;2023-02-25T14:47:27;0.35;;;0.30;;
39970;SDS011;35425;51.142;17.178;2023-02-25T14:50:05;1.23;;;0.50;;
39970;SDS011;35425;51.142;17.178;2023-02-25T14:52:55;0.80;;;0.30;;
39970;SDS011;35425;51.142;17.178;2023-02-25T15:05:43;0.90;;;0.45;;
39970;SDS011;35425;51.142;17.178;2023-02-25T15:10:50;0.45;;;0.30;;
39970;SDS011;35425;51.142;17.178;2023-02-25T15:13:36;0.55;;;0.40;;
39970;SDS011;35425;51.142;17.178;2023-02-25T15:21:52;1.00;;;0.60;;
39970;SDS011;35425;51.142;17.178;2023-02-25T15:23:53;0.60;;;0.40;;
39970;SDS011;35425;51.142;17.178;2023-02-25T15:26:22;0.60;;;0.50;;
39970;SDS011;35425;51.142;17.178;2023-02-25T15:28:50;0.60;;;0.40;;
39970;SDS011;35425;51.142;17.178;2023-02-25T15:31:24;0.60;;;0.40;;
39970;SDS011;35425;51.142;17.178;2023-02-25T15:36:49;0.45;;;0.40;;
39970;SDS011;35425;51.142;17.178;2023-02-25T15:44:34;0.90;;;0.70;;
39970;SDS011;35425;51.142;17.178;2023-02-25T15:47:44;0.80;;;0.50;;
39970;SDS011;35425;51.142;17.178;2023-02-25T15:49:51;0.95;;;0.60;;
39970;SDS011;35425;51.142;17.178;2023-02-25T15:55:14;1.25;;;0.70;;
39970;SDS011;35425;51.142;17.178;2023-02-25T15:57:43;0.90;;;0.60;;
39970;SDS011;35425;51.142;17.178;2023-02-25T16:02:58;1.17;;;0.70;;
39970;SDS011;35425;51.142;17.178;2023-02-25T16:05:28;1.30;;;0.60;;
39970;SDS011;35425;51.142;17.178;2023-02-25T16:08:04;0.75;;;0.60;;
39970;SDS011;35425;51.142;17.178;2023-02-25T16:10:34;1.15;;;0.68;;
39970;SDS011;35425;51.142;17.178;2023-02-25T16:13:03;0.77;;;0.52;;
39970;SDS011;35425;51.142;17.178;2023-02-25T16:15:33;0.70;;;0.60;;
39970;SDS011;35425;51.142;17.178;2023-02-25T16:18:25;1.25;;;0.65;;
39970;SDS011;35425;51.142;17.178;2023-02-25T16:20:49;1.02;;;0.70;;
39970;SDS011;35425;51.142;17.178;2023-02-25T16:23:16;0.93;;;0.77;;
39970;SDS011;35425;51.142;17.178;2023-02-25T16:31:26;0.85;;;0.68;;
39970;SDS011;35425;51.142;17.178;2023-02-25T16:36:14;1.05;;;0.95;;
39970;SDS011;35425;51.142;17.178;2023-02-25T16:38:46;1.10;;;0.80;;
39970;SDS011;35425;51.142;17.178;2023-02-25T16:41:13;1.13;;;0.82;;
39970;SDS011;35425;51.142;17.178;2023-02-25T16:43:40;0.93;;;0.82;;
39970;SDS011;35425;51.142;17.178;2023-02-25T16:46:10;0.95;;;0.85;;
39970;SDS011;35425;51.142;17.178;2023-02-25T16:48:45;0.98;;;0.80;;
39970;SDS011;35425;51.142;17.178;2023-02-25T16:51:18;1.10;;;0.98;;
39970;SDS011;35425;51.142;17.178;2023-02-25T16:53:46;1.08;;;0.82;;
39970;SDS011;35425;51.142;17.178;2023-02-25T16:56:15;2.10;;;1.10;;
39970;SDS011;35425;51.142;17.178;2023-02-25T16:59:02;1.45;;;0.88;;
39970;SDS011;35425;51.142;17.178;2023-02-25T17:01:30;1.15;;;1.00;;
39970;SDS011;35425;51.142;17.178;2023-02-25T17:04:01;1.15;;;0.80;;
39970;SDS011;35425;51.142;17.178;2023-02-25T17:06:28;0.80;;;0.80;;
39970;SDS011;35425;51.142;17.178;2023-02-25T17:08:54;1.10;;;0.88;;
39970;SDS011;35425;51.142;17.178;2023-02-25T17:11:21;1.27;;;0.90;;
39970;SDS011;35425;51.142;17.178;2023-02-25T17:13:49;1.17;;;0.93;;
39970;SDS011;35425;51.142;17.178;2023-02-25T17:16:27;1.15;;;1.05;;
39970;SDS011;35425;51.142;17.178;2023-02-25T17:18:55;1.50;;;1.20;;
39970;SDS011;35425;51.142;17.178;2023-02-25T17:21:32;1.50;;;1.10;;
39970;SDS011;35425;51.142;17.178;2023-02-25T17:24:01;1.45;;;1.13;;
39970;SDS011;35425;51.142;17.178;2023-02-25T17:26:28;1.67;;;1.10;;
39970;SDS011;35425;51.142;17.178;2023-02-25T17:28:56;1.80;;;1.10;;
39970;SDS011;35425;51.142;17.178;2023-02-25T17:31:25;1.73;;;1.15;;
39970;SDS011;35425;51.142;17.178;2023-02-25T17:33:56;1.42;;;1.10;;
39970;SDS011;35425;51.142;17.178;2023-02-25T17:36:24;1.15;;;1.05;;
39970;SDS011;35425;51.142;17.178;2023-02-25T17:38:53;1.13;;;1.00;;
39970;SDS011;35425;51.142;17.178;2023-02-25T17:41:20;1.40;;;1.08;;
39970;SDS011;35425;51.142;17.178;2023-02-25T17:43:47;1.92;;;1.40;;
39970;SDS011;35425;51.142;17.178;2023-02-25T17:48:54;1.48;;;1.10;;
39970;SDS011;35425;51.142;17.178;2023-02-25T17:54:15;1.85;;;1.15;;
39970;SDS011;35425;51.142;17.178;2023-02-25T17:56:43;1.25;;;1.15;;
39970;SDS011;35425;51.142;17.178;2023-02-25T18:04:21;1.10;;;1.00;;
39970;SDS011;35425;51.142;17.178;2023-02-25T18:06:49;1.38;;;1.17;;
39970;SDS011;35425;51.142;17.178;2023-02-25T18:09:27;1.52;;;1.13;;
39970;SDS011;35425;51.142;17.178;2023-02-25T18:11:55;1.00;;;0.82;;
39970;SDS011;35425;51.142;17.178;2023-02-25T18:16:51;1.20;;;0.98;;
39970;SDS011;35425;51.142;17.178;2023-02-25T18:19:32;1.60;;;0.85;;
39970;SDS011;35425;51.142;17.178;2023-02-25T18:22:00;1.00;;;0.90;;
39970;SDS011;35425;51.142;17.178;2023-02-25T18:24:35;1.30;;;1.00;;
39970;SDS011;35425;51.142;17.178;2023-02-25T18:29:31;1.20;;;1.10;;
39970;SDS011;35425;51.142;17.178;2023-02-25T18:31:58;1.25;;;1.00;;
39970;SDS011;35425;51.142;17.178;2023-02-25T18:34:25;1.10;;;1.00;;
39970;SDS011;35425;51.142;17.178;2023-02-25T18:36:51;1.42;;;1.08;;
39970;SDS011;35425;51.142;17.178;2023-02-25T18:39:18;0.98;;;0.82;;